createdAt,value
2019-04-29T00:01:07.139Z,56.32
2019-04-29T00:03:38.307Z,56.35
2019-04-29T00:06:07.168Z,56.36
2019-04-29T00:08:36.206Z,56.48
2019-04-29T00:11:05.243Z,56.56
2019-04-29T00:13:34.344Z,56.58
2019-04-29T00:16:31.416Z,56.63
2019-04-29T00:19:10.420Z,56.68
2019-04-29T00:21:39.810Z,56.80
2019-04-29T00:24:08.897Z,56.83
2019-04-29T00:26:38.220Z,56.84
2019-04-29T00:29:07.239Z,56.77
2019-04-29T00:31:36.237Z,56.83
2019-04-29T00:34:05.267Z,56.88
2019-04-29T00:36:40.562Z,56.94
2019-04-29T00:39:43.987Z,56.90
2019-04-29T00:42:20.800Z,56.96
2019-04-29T00:44:49.817Z,57.20
2019-04-29T00:47:18.881Z,57.24
2019-04-29T00:49:47.804Z,57.24
2019-04-29T00:52:16.792Z,57.25
2019-04-29T00:54:51.398Z,57.29
2019-04-29T00:57:20.293Z,57.30
2019-04-29T00:59:49.268Z,57.30
2019-04-29T01:02:18.253Z,57.36
2019-04-29T01:04:47.188Z,57.34
2019-04-29T01:07:16.047Z,57.33
2019-04-29T01:09:45.002Z,57.22
2019-04-29T01:12:14.003Z,57.21
2019-04-29T01:14:42.938Z,57.19
2019-04-29T01:17:11.954Z,57.23
2019-04-29T01:19:40.966Z,57.30
2019-04-29T01:22:09.972Z,57.27
2019-04-29T01:24:38.962Z,57.27
2019-04-29T01:27:13.661Z,57.28
2019-04-29T01:29:42.604Z,57.26
2019-04-29T01:32:11.646Z,57.24
2019-04-29T01:34:47.991Z,57.23
2019-04-29T01:37:16.997Z,57.18
2019-04-29T01:39:55.091Z,57.11
2019-04-29T01:42:27.741Z,57.15
2019-04-29T01:44:56.710Z,57.09
2019-04-29T01:47:25.734Z,57.11
2019-04-29T01:49:54.809Z,57.20
2019-04-29T01:52:23.824Z,57.11
2019-04-29T01:54:52.762Z,57.12
2019-04-29T01:57:21.685Z,57.07
2019-04-29T01:59:50.675Z,57.11
2019-04-29T02:02:19.593Z,57.13
2019-04-29T02:04:48.691Z,57.23
2019-04-29T02:07:17.578Z,57.29
2019-04-29T02:09:53.494Z,57.32
2019-04-29T02:12:22.487Z,57.38
2019-04-29T02:14:51.471Z,57.38
2019-04-29T02:17:20.484Z,57.39
2019-04-29T02:19:49.622Z,57.37
2019-04-29T02:22:41.921Z,57.39
2019-04-29T02:25:24.402Z,57.45
2019-04-29T02:27:53.428Z,57.48
2019-04-29T02:30:48.305Z,57.48
2019-04-29T02:33:17.282Z,57.54
2019-04-29T02:35:46.287Z,57.59
2019-04-29T02:38:24.062Z,57.61
2019-04-29T02:41:04.517Z,57.61
2019-04-29T02:43:35.349Z,57.64
2019-04-29T02:46:04.343Z,57.60
2019-04-29T02:48:34.751Z,57.67
2019-04-29T02:51:04.098Z,57.71
2019-04-29T02:53:33.127Z,57.66
2019-04-29T02:56:02.689Z,57.64
2019-04-29T02:58:46.646Z,57.65
2019-04-29T03:01:34.685Z,57.66
2019-04-29T03:04:12.835Z,57.74
2019-04-29T03:06:41.796Z,57.71
2019-04-29T03:09:10.736Z,57.66
2019-04-29T03:11:39.653Z,57.69
2019-04-29T03:14:08.607Z,57.72
2019-04-29T03:16:37.680Z,57.73
2019-04-29T03:19:12.695Z,57.62
2019-04-29T03:21:49.560Z,57.71
2019-04-29T03:24:18.479Z,57.75
2019-04-29T03:26:47.388Z,57.75
2019-04-29T03:29:22.461Z,57.75
2019-04-29T03:31:56.846Z,57.77
2019-04-29T03:34:25.793Z,57.85
2019-04-29T03:36:54.786Z,57.85
2019-04-29T03:39:23.828Z,57.85
2019-04-29T03:41:52.856Z,57.85
2019-04-29T03:44:21.890Z,57.79
2019-04-29T03:46:50.981Z,57.83
2019-04-29T03:49:19.890Z,57.83
2019-04-29T03:51:48.847Z,57.85
2019-04-29T03:54:17.866Z,57.82
2019-04-29T03:56:46.734Z,57.69
2019-04-29T03:59:15.779Z,57.47
2019-04-29T04:01:55.268Z,57.32
2019-04-29T04:04:43.264Z,57.33
2019-04-29T04:07:30.088Z,57.34
2019-04-29T04:09:59.090Z,57.38
2019-04-29T04:12:28.895Z,57.51
2019-04-29T04:14:57.896Z,57.49
2019-04-29T04:17:41.353Z,57.42
2019-04-29T04:20:10.513Z,57.31
2019-04-29T04:22:48.816Z,57.32
2019-04-29T04:25:18.135Z,57.31
2019-04-29T04:27:47.213Z,57.23
2019-04-29T04:30:16.285Z,57.08
2019-04-29T04:32:45.381Z,56.97
2019-04-29T04:35:14.904Z,56.87
2019-04-29T04:37:43.901Z,56.76
2019-04-29T04:40:15.654Z,56.81
2019-04-29T04:42:44.717Z,56.86
2019-04-29T04:45:13.696Z,56.81
2019-04-29T04:47:42.698Z,56.66
2019-04-29T04:50:11.747Z,56.55
2019-04-29T04:52:40.868Z,56.43
2019-04-29T04:55:10.753Z,56.36
2019-04-29T04:57:39.944Z,56.37
2019-04-29T05:00:14.569Z,56.33
2019-04-29T05:02:43.599Z,56.37
2019-04-29T05:05:15.694Z,56.42
2019-04-29T05:07:46.010Z,56.51
2019-04-29T05:10:14.964Z,56.35
2019-04-29T05:12:44.048Z,56.20
2019-04-29T05:15:13.097Z,56.07
2019-04-29T05:17:42.213Z,56.01
2019-04-29T05:20:11.253Z,55.97
2019-04-29T05:22:42.214Z,55.93
2019-04-29T05:25:11.427Z,55.85
2019-04-29T05:27:40.512Z,55.90
2019-04-29T05:30:09.561Z,56.01
2019-04-29T05:32:38.612Z,55.81
2019-04-29T05:35:11.748Z,55.59
2019-04-29T05:37:51.853Z,55.25
2019-04-29T05:40:45.952Z,55.19
2019-04-29T05:43:17.278Z,54.85
2019-04-29T05:45:57.104Z,54.60
2019-04-29T05:48:27.598Z,54.22
2019-04-29T05:51:03.558Z,53.69
2019-04-29T05:53:36.437Z,53.41
2019-04-29T05:56:05.472Z,52.81
2019-04-29T05:58:37.768Z,51.92
2019-04-29T06:01:09.755Z,50.97
2019-04-29T06:03:39.845Z,50.16
2019-04-29T06:06:12.013Z,49.27
2019-04-29T06:08:40.628Z,48.20
2019-04-29T06:11:09.700Z,47.47
2019-04-29T06:13:38.878Z,46.52
2019-04-29T06:16:07.968Z,45.49
2019-04-29T06:18:36.990Z,44.83
2019-04-29T06:21:09.402Z,43.13
2019-04-29T06:23:36.959Z,42.02
2019-04-29T06:26:06.140Z,40.97
2019-04-29T06:28:35.139Z,40.49
2019-04-29T06:31:04.977Z,40.37
2019-04-29T06:33:33.883Z,40.27
2019-04-29T06:36:03.060Z,40.08
2019-04-29T06:38:32.091Z,40.59
2019-04-29T06:41:01.427Z,40.50
2019-04-29T06:43:30.782Z,39.58
2019-04-29T06:46:02.545Z,38.92
2019-04-29T06:48:31.584Z,38.17
2019-04-29T06:51:00.704Z,37.64
2019-04-29T06:53:29.742Z,38.28
2019-04-29T06:55:58.706Z,37.60
2019-04-29T06:58:27.813Z,37.58
2019-04-29T07:01:01.054Z,37.50
2019-04-29T07:03:28.706Z,37.58
2019-04-29T07:05:57.782Z,36.62
2019-04-29T07:08:26.792Z,36.23
2019-04-29T07:11:00.711Z,35.73
2019-04-29T07:13:26.568Z,36.02
2019-04-29T07:15:55.658Z,35.58
2019-04-29T07:18:24.976Z,34.62
2019-04-29T07:20:54.192Z,34.25
2019-04-29T07:23:23.397Z,33.91
2019-04-29T07:25:52.637Z,32.96
2019-04-29T07:28:21.865Z,32.24
2019-04-29T07:31:01.094Z,31.53
2019-04-29T07:33:22.648Z,30.50
2019-04-29T07:35:52.961Z,29.63
2019-04-29T07:38:25.336Z,29.33
2019-04-29T07:40:56.465Z,29.12
2019-04-29T07:43:25.558Z,27.79
2019-04-29T07:46:18.913Z,27.35
2019-04-29T07:49:00.884Z,27.07
2019-04-29T07:51:18.719Z,26.97
2019-04-29T07:53:47.655Z,26.09
2019-04-29T07:56:17.381Z,26.14
2019-04-29T07:58:51.645Z,25.57
2019-04-29T08:01:24.331Z,24.65
2019-04-29T08:03:51.868Z,23.63
2019-04-29T08:06:22.077Z,23.01
2019-04-29T08:08:55.578Z,22.28
2019-04-29T08:11:21.879Z,21.53
2019-04-29T08:13:50.910Z,21.63
2019-04-29T08:16:19.991Z,21.40
2019-04-29T08:18:49.491Z,21.55
2019-04-29T08:21:20.123Z,21.60
2019-04-29T08:23:49.138Z,20.95
2019-04-29T08:26:18.275Z,20.26
2019-04-29T08:28:47.254Z,19.65
2019-04-29T08:31:16.688Z,19.57
2019-04-29T08:33:49.849Z,18.64
2019-04-29T08:36:18.980Z,18.43
2019-04-29T08:38:47.960Z,19.13
2019-04-29T08:41:21.560Z,19.04
2019-04-29T08:44:15.917Z,18.29
2019-04-29T08:46:44.500Z,17.34
2019-04-29T08:49:14.744Z,16.96
2019-04-29T08:51:42.777Z,15.83
2019-04-29T08:54:11.799Z,15.92
2019-04-29T08:57:01.777Z,15.90
2019-04-29T08:59:11.739Z,15.82
2019-04-29T09:01:40.805Z,15.31
2019-04-29T09:04:09.995Z,15.72
2019-04-29T09:06:38.993Z,16.00
2019-04-29T09:09:10.572Z,15.79
2019-04-29T09:11:38.858Z,15.69
2019-04-29T09:14:07.778Z,15.48
2019-04-29T09:16:36.778Z,15.17
2019-04-29T09:19:05.833Z,15.16
2019-04-29T09:21:35.140Z,14.76
2019-04-29T09:24:04.168Z,14.53
2019-04-29T09:26:39.715Z,14.29
2019-04-29T09:29:26.152Z,14.09
2019-04-29T09:31:55.325Z,13.92
2019-04-29T09:34:26.149Z,13.80
2019-04-29T09:36:55.255Z,13.54
2019-04-29T09:39:25.583Z,12.97
2019-04-29T09:42:16.518Z,12.77
2019-04-29T09:45:03.031Z,12.45
2019-04-29T09:47:32.443Z,12.45
2019-04-29T09:50:01.419Z,12.82
2019-04-29T09:52:30.426Z,12.52
2019-04-29T09:54:59.722Z,12.67
2019-04-29T09:57:30.214Z,12.89
2019-04-29T10:00:08.400Z,12.17
2019-04-29T10:02:56.394Z,12.13
2019-04-29T10:05:38.034Z,12.76
2019-04-29T10:08:07.019Z,12.60
2019-04-29T10:10:37.417Z,12.34
2019-04-29T10:13:06.831Z,12.25
2019-04-29T10:16:00.450Z,12.45
2019-04-29T10:18:36.552Z,13.37
2019-04-29T10:21:08.866Z,13.96
2019-04-29T10:23:37.887Z,15.03
2019-04-29T10:26:06.963Z,15.65
2019-04-29T10:28:38.459Z,16.57
2019-04-29T10:31:08.350Z,16.79
2019-04-29T10:33:37.518Z,16.51
2019-04-29T10:36:06.532Z,16.19
2019-04-29T10:38:35.566Z,15.19
2019-04-29T10:41:19.424Z,14.27
2019-04-29T10:44:10.257Z,13.58
2019-04-29T10:47:01.239Z,13.64
2019-04-29T10:49:39.189Z,14.53
2019-04-29T10:52:08.718Z,15.31
2019-04-29T10:54:37.813Z,16.33
2019-04-29T10:57:10.525Z,16.82
2019-04-29T10:59:40.639Z,17.26
2019-04-29T11:02:34.181Z,17.25
2019-04-29T11:05:28.874Z,17.45
2019-04-29T11:08:17.732Z,17.58
2019-04-29T11:10:46.612Z,17.15
2019-04-29T11:13:15.791Z,17.00
2019-04-29T11:15:49.003Z,16.91
2019-04-29T11:18:18.266Z,17.03
2019-04-29T11:20:48.826Z,17.47
2019-04-29T11:23:33.851Z,18.22
2019-04-29T11:26:40.283Z,19.03
2019-04-29T11:29:09.762Z,19.70
2019-04-29T11:31:38.963Z,19.15
2019-04-29T11:34:35.784Z,17.76
2019-04-29T11:37:06.507Z,17.57
2019-04-29T11:39:35.792Z,16.97
2019-04-29T11:42:06.092Z,17.53
2019-04-29T11:44:35.124Z,18.44
2019-04-29T11:47:04.183Z,19.25
2019-04-29T11:49:51.346Z,19.90
2019-04-29T11:52:23.668Z,20.47
2019-04-29T11:54:51.232Z,20.71
2019-04-29T11:57:54.350Z,21.01
2019-04-29T12:00:40.916Z,21.10
2019-04-29T12:03:18.589Z,21.93
2019-04-29T12:05:59.612Z,21.84
2019-04-29T12:08:28.925Z,22.07
2019-04-29T12:11:06.548Z,21.99
2019-04-29T12:13:38.800Z,22.24
2019-04-29T12:16:15.127Z,22.22
2019-04-29T12:18:49.545Z,22.11
2019-04-29T12:21:43.688Z,22.08
2019-04-29T12:24:12.762Z,22.47
2019-04-29T12:26:44.296Z,22.47
2019-04-29T12:29:13.646Z,22.31
2019-04-29T12:31:51.199Z,22.04
2019-04-29T12:34:39.332Z,21.55
2019-04-29T12:37:18.186Z,21.28
2019-04-29T12:40:04.818Z,20.95
2019-04-29T12:43:00.840Z,21.38
2019-04-29T12:45:34.574Z,21.73
2019-04-29T12:48:06.495Z,21.50
2019-04-29T12:50:34.642Z,21.26
2019-04-29T12:53:03.927Z,21.47
2019-04-29T12:55:45.162Z,21.48
2019-04-29T12:58:10.176Z,21.70
2019-04-29T13:00:47.839Z,21.55
2019-04-29T13:03:25.797Z,22.07
2019-04-29T13:06:09.289Z,22.32
2019-04-29T13:08:49.236Z,22.65
2019-04-29T13:11:19.155Z,23.03
2019-04-29T13:13:51.369Z,22.89
2019-04-29T13:16:27.854Z,22.93
2019-04-29T13:19:12.241Z,23.19
2019-04-29T13:21:40.298Z,23.27
2019-04-29T13:24:22.053Z,23.29
2019-04-29T13:26:42.880Z,23.38
2019-04-29T13:29:25.885Z,23.28
2019-04-29T13:31:42.016Z,23.26
2019-04-29T13:34:23.760Z,23.24
2019-04-29T13:36:44.535Z,23.66
2019-04-29T13:39:13.773Z,23.86
2019-04-29T13:41:56.909Z,23.94
2019-04-29T13:44:13.645Z,24.25
2019-04-29T13:46:58.908Z,24.39
2019-04-29T13:49:49.405Z,24.58
2019-04-29T13:52:18.028Z,24.32
2019-04-29T13:54:47.171Z,24.28
2019-04-29T13:57:16.441Z,24.36
2019-04-29T14:00:04.452Z,23.96
2019-04-29T14:02:39.886Z,23.95
2019-04-29T14:05:10.191Z,23.60
2019-04-29T14:07:39.794Z,23.61
2019-04-29T14:10:10.216Z,23.83
2019-04-29T14:12:48.369Z,23.91
2019-04-29T14:15:10.900Z,24.20
2019-04-29T14:17:39.859Z,24.27
2019-04-29T14:20:10.599Z,24.35
2019-04-29T14:22:40.491Z,24.39
2019-04-29T14:25:09.613Z,24.78
2019-04-29T14:27:38.613Z,24.67
2019-04-29T14:30:10.356Z,24.82
2019-04-29T14:32:42.386Z,24.82
2019-04-29T14:35:20.007Z,24.42
2019-04-29T14:37:55.438Z,24.57
2019-04-29T14:40:19.679Z,24.43
2019-04-29T14:43:18.397Z,24.18
2019-04-29T14:45:56.116Z,24.42
2019-04-29T14:48:47.040Z,24.78
2019-04-29T14:51:16.291Z,25.44
2019-04-29T14:53:56.157Z,25.78
2019-04-29T14:56:16.078Z,25.98
2019-04-29T14:58:45.365Z,25.95
2019-04-29T15:01:31.035Z,25.91
2019-04-29T15:04:17.945Z,25.84
2019-04-29T15:06:37.136Z,26.02
2019-04-29T15:09:16.961Z,26.25
2019-04-29T15:12:07.899Z,26.20
2019-04-29T15:14:59.128Z,26.44
2019-04-29T15:17:47.544Z,26.40
2019-04-29T15:20:41.683Z,26.59
2019-04-29T15:23:10.723Z,26.96
2019-04-29T15:25:39.791Z,27.08
2019-04-29T15:28:08.960Z,27.16
2019-04-29T15:30:39.121Z,27.34
2019-04-29T15:33:08.235Z,27.65
2019-04-29T15:35:37.270Z,27.88
2019-04-29T15:38:06.400Z,28.02
2019-04-29T15:40:42.816Z,28.36
2019-04-29T15:43:06.577Z,28.28
2019-04-29T15:45:35.617Z,28.72
2019-04-29T15:48:04.865Z,28.66
2019-04-29T15:50:37.119Z,28.74
2019-04-29T15:53:04.987Z,28.80
2019-04-29T15:55:34.918Z,29.05
2019-04-29T15:58:05.345Z,29.27
2019-04-29T16:00:37.835Z,29.42
2019-04-29T16:03:05.726Z,29.51
2019-04-29T16:06:19.841Z,29.50
2019-04-29T16:08:46.591Z,29.67
2019-04-29T16:11:34.583Z,29.82
2019-04-29T16:14:09.337Z,30.16
2019-04-29T16:16:35.505Z,30.56
2019-04-29T16:19:07.983Z,30.82
2019-04-29T16:21:39.062Z,31.00
2019-04-29T16:24:24.914Z,31.18
2019-04-29T16:26:40.945Z,31.45
2019-04-29T16:29:16.304Z,31.53
2019-04-29T16:31:49.194Z,31.66
2019-04-29T16:34:18.507Z,32.06
2019-04-29T16:36:50.059Z,31.87
2019-04-29T16:39:19.344Z,31.96
2019-04-29T16:42:13.695Z,32.27
2019-04-29T16:44:43.823Z,32.54
2019-04-29T16:47:13.950Z,32.85
2019-04-29T16:49:43.941Z,33.04
2019-04-29T16:52:13.340Z,33.13
2019-04-29T16:54:42.501Z,33.27
2019-04-29T16:57:11.800Z,33.59
2019-04-29T16:59:40.830Z,33.94
2019-04-29T17:02:09.900Z,34.43
2019-04-29T17:04:38.970Z,34.70
2019-04-29T17:07:13.513Z,34.92
2019-04-29T17:09:56.503Z,35.28
2019-04-29T17:12:29.426Z,35.42
2019-04-29T17:15:17.292Z,35.69
2019-04-29T17:17:29.506Z,36.03
2019-04-29T17:19:58.663Z,36.16
2019-04-29T17:22:27.909Z,36.19
2019-04-29T17:24:57.034Z,36.53
2019-04-29T17:27:54.252Z,36.69
2019-04-29T17:30:58.476Z,36.74
2019-04-29T17:33:52.790Z,36.87
2019-04-29T17:36:23.976Z,37.25
2019-04-29T17:38:52.836Z,37.41
2019-04-29T17:41:21.971Z,37.45
2019-04-29T17:44:18.776Z,37.57
2019-04-29T17:46:56.585Z,37.86
2019-04-29T17:49:41.549Z,37.94
2019-04-29T17:52:18.397Z,38.07
2019-04-29T17:54:49.324Z,38.34
2019-04-29T17:57:36.493Z,38.18
2019-04-29T18:00:25.679Z,38.34
2019-04-29T18:03:22.752Z,38.38
2019-04-29T18:06:02.807Z,38.83
2019-04-29T18:08:36.698Z,39.09
2019-04-29T18:11:08.065Z,39.89
2019-04-29T18:13:36.504Z,40.26
2019-04-29T18:16:17.422Z,40.09
2019-04-29T18:18:57.442Z,39.96
2019-04-29T18:21:47.559Z,39.92
2019-04-29T18:24:47.760Z,40.03
2019-04-29T18:27:18.955Z,40.02
2019-04-29T18:29:48.107Z,40.20
2019-04-29T18:32:17.170Z,40.35
2019-04-29T18:34:46.448Z,40.50
2019-04-29T18:37:16.741Z,40.81
2019-04-29T18:39:45.970Z,40.98
2019-04-29T18:42:15.899Z,41.21
2019-04-29T18:44:55.110Z,41.45
2019-04-29T18:47:22.555Z,41.52
2019-04-29T18:49:47.405Z,41.65
2019-04-29T18:52:25.428Z,41.92
2019-04-29T18:54:47.686Z,42.07
2019-04-29T18:57:27.848Z,42.18
2019-04-29T18:59:47.594Z,42.19
2019-04-29T19:02:16.745Z,42.24
2019-04-29T19:05:07.901Z,42.36
2019-04-29T19:07:40.146Z,42.46
2019-04-29T19:10:14.156Z,42.64
2019-04-29T19:12:39.921Z,42.78
2019-04-29T19:15:11.804Z,42.93
2019-04-29T19:17:40.149Z,43.16
2019-04-29T19:20:12.902Z,43.32
2019-04-29T19:22:44.048Z,43.36
2019-04-29T19:25:12.062Z,43.26
2019-04-29T19:27:41.514Z,43.30
2019-04-29T19:30:16.014Z,43.38
2019-04-29T19:32:44.383Z,43.55
2019-04-29T19:35:12.466Z,43.73
2019-04-29T19:37:45.330Z,43.75
2019-04-29T19:40:14.994Z,44.18
2019-04-29T19:42:46.908Z,44.29
2019-04-29T19:45:17.246Z,44.39
2019-04-29T19:47:51.966Z,44.72
2019-04-29T19:50:19.521Z,44.77
2019-04-29T19:52:51.135Z,44.87
2019-04-29T19:55:20.560Z,45.02
2019-04-29T19:57:52.296Z,45.13
2019-04-29T20:00:27.855Z,45.42
2019-04-29T20:02:51.658Z,45.50
2019-04-29T20:05:35.212Z,45.74
2019-04-29T20:08:02.151Z,45.87
2019-04-29T20:10:36.805Z,45.89
2019-04-29T20:13:03.220Z,46.02
2019-04-29T20:15:37.290Z,46.19
2019-04-29T20:18:30.748Z,46.51
2019-04-29T20:21:09.210Z,46.56
2019-04-29T20:23:39.491Z,46.86
2019-04-29T20:26:15.486Z,47.08
2019-04-29T20:28:40.291Z,47.16
2019-04-29T20:31:19.090Z,47.16
2019-04-29T20:33:42.103Z,47.26
2019-04-29T20:36:11.593Z,47.47
2019-04-29T20:38:41.072Z,47.64
2019-04-29T20:41:12.948Z,47.73
2019-04-29T20:43:47.725Z,47.95
2019-04-29T20:46:19.169Z,47.95
2019-04-29T20:48:50.466Z,48.11
2019-04-29T20:51:23.292Z,48.24
2019-04-29T20:53:59.512Z,48.24
2019-04-29T20:56:34.663Z,48.24
2019-04-29T20:59:01.804Z,48.35
2019-04-29T21:01:42.643Z,48.46
2019-04-29T21:04:06.764Z,48.77
2019-04-29T21:06:43.636Z,48.58
2019-04-29T21:09:07.992Z,48.32
2019-04-29T21:11:45.667Z,48.05
2019-04-29T21:14:33.899Z,47.80
2019-04-29T21:17:02.163Z,47.53
2019-04-29T21:19:29.137Z,47.25
2019-04-29T21:21:58.433Z,47.22
2019-04-29T21:24:27.867Z,47.34
2019-04-29T21:26:58.499Z,47.40
2019-04-29T21:29:27.654Z,47.40
2019-04-29T21:32:01.443Z,47.43
2019-04-29T21:34:34.612Z,47.61
2019-04-29T21:37:31.392Z,47.47
2019-04-29T21:40:07.160Z,47.64
2019-04-29T21:42:47.109Z,47.72
2019-04-29T21:45:17.510Z,47.84
2019-04-29T21:47:52.957Z,47.83
2019-04-29T21:50:17.415Z,48.08
2019-04-29T21:52:46.853Z,47.98
2019-04-29T21:55:16.258Z,48.00
2019-04-29T21:57:45.399Z,47.91
2019-04-29T22:00:19.801Z,47.96
2019-04-29T22:02:46.558Z,47.96
2019-04-29T22:05:18.329Z,48.03
2019-04-29T22:07:47.589Z,48.15
2019-04-29T22:10:19.964Z,48.32
2019-04-29T22:12:50.864Z,48.62
2019-04-29T22:15:29.804Z,48.66
2019-04-29T22:17:56.561Z,48.73
2019-04-29T22:20:19.662Z,48.98
2019-04-29T22:22:48.720Z,49.06
2019-04-29T22:25:17.722Z,49.13
2019-04-29T22:27:46.765Z,49.31
2019-04-29T22:30:18.548Z,49.58
2019-04-29T22:32:47.130Z,49.38
2019-04-29T22:35:17.638Z,49.30
2019-04-29T22:37:46.678Z,49.07
2019-04-29T22:40:17.418Z,49.11
2019-04-29T22:43:04.661Z,49.18
2019-04-29T22:45:29.538Z,49.06
2019-04-29T22:48:12.058Z,49.22
2019-04-29T22:50:33.725Z,49.35
2019-04-29T22:53:01.242Z,49.35
2019-04-29T22:55:37.178Z,49.35
2019-04-29T22:58:08.169Z,49.25
2019-04-29T23:00:33.891Z,49.28
2019-04-29T23:03:03.554Z,49.27
2019-04-29T23:05:32.607Z,49.31
2019-04-29T23:08:01.628Z,49.26
2019-04-29T23:10:30.546Z,49.28
2019-04-29T23:13:00.483Z,49.39
2019-04-29T23:15:29.491Z,49.49
2019-04-29T23:17:58.448Z,49.65
2019-04-29T23:20:45.535Z,49.86
2019-04-29T23:23:19.653Z,50.10
2019-04-29T23:25:52.078Z,50.21
2019-04-29T23:28:22.415Z,50.33
2019-04-29T23:30:52.160Z,50.40
2019-04-29T23:33:23.952Z,50.53
2019-04-29T23:35:52.970Z,50.52
2019-04-29T23:38:22.005Z,50.50
2019-04-29T23:40:54.451Z,50.59
2019-04-29T23:43:26.617Z,50.49
2019-04-29T23:45:56.991Z,50.51
2019-04-29T23:48:23.758Z,50.53
2019-04-29T23:50:56.652Z,50.55
2019-04-29T23:53:25.196Z,50.49
2019-04-29T23:55:55.596Z,50.50
2019-04-29T23:58:46.802Z,50.46
